Triana, Alabama
Current Conditions -  °F | °C
As of 6:53 PM on Friday 28 Nov 2014 (Local Time) from KHSV Reporting Station
Clear Clear  
Wind Chill: 38°   Ceiling: Unl
Heat Index: 41°   Visibility: 10mi
Dew Point: 22°   Wind: 5mph
Humidity: 47%   Direction: 130°SE
Pressure: 30.25"   Gusts: NA
Location:  34.6731°N, 86.8135°W
Report Text: KHSV 290053Z 13004KT 10SM CLR 05/M06 A3025 RMK AO2 SLP246 T00501056
Loading
Personal Weather Stations






























Interactive Weather Map New forecast layout! Learn more

10-Day Weather Forecast

Advertisements
Track Severe Weather on mobile